Time;durP1;ratioP1;P1;durP2;ratioP2;P2;SDS_P1;SDS_P2;PMS_P1;PMS_P2;Temp;Humidity;BMP_temperature;BMP_pressure;BME280_temperature;BME280_humidity;BME280_pressure;Samples;Min_cycle;Max_cycle;Signal;HPM_P1;HPM_P2
2021/04/11 00:00:15;;;;;;;0.63;0.63;;;;;;;3.40;58.27;101185.25;5078836;28;20651;-72
2021/04/11 00:02:43;;;;;;;1.60;0.50;;;;;;;3.32;58.33;101186.41;5087262;28;20250;-73
2021/04/11 00:05:13;;;;;;;0.87;0.80;;;;;;;3.22;58.49;101191.13;5084534;28;20195;-69
2021/04/11 00:07:41;;;;;;;1.00;1.00;;;;;;;3.00;58.60;101166.13;5089145;28;20217;-67
2021/04/11 00:10:10;;;;;;;16.80;2.03;;;;;;;3.14;58.23;101185.19;5084236;28;20295;-67
2021/04/11 00:12:37;;;;;;;1.93;0.80;;;;;;;3.09;58.24;101181.81;5083567;28;20208;-68
2021/04/11 00:15:07;;;;;;;2.73;0.73;;;;;;;3.09;58.02;101185.34;5081437;28;20252;-68
2021/04/11 00:17:35;;;;;;;1.23;0.50;;;;;;;3.11;58.18;101190.59;5079022;28;20312;-68
2021/04/11 00:20:03;;;;;;;2.10;0.50;;;;;;;3.07;58.28;101191.59;5084297;28;20670;-68
2021/04/11 00:22:31;;;;;;;1.27;0.53;;;;;;;2.90;58.10;101165.56;5082295;28;20203;-68
2021/04/11 00:24:58;;;;;;;6.97;0.53;;;;;;;3.02;58.87;101190.84;5074892;28;20204;-69
2021/04/11 00:27:25;;;;;;;0.30;0.27;;;;;;;3.02;58.75;101196.16;5088312;28;20226;-73
2021/04/11 00:29:52;;;;;;;1.10;0.40;;;;;;;2.97;58.41;101201.59;5087170;28;20685;-73
2021/04/11 00:32:20;;;;;;;3.57;0.63;;;;;;;2.92;58.91;101205.28;5083697;28;20271;-73
2021/04/11 00:34:47;;;;;;;0.30;0.30;;;;;;;2.88;59.03;101201.00;5069490;28;20195;-68
2021/04/11 00:37:16;;;;;;;0.83;0.57;;;;;;;2.82;58.50;101203.81;5084078;28;20204;-68
2021/04/11 00:39:43;;;;;;;0.57;0.30;;;;;;;2.66;58.76;101185.69;5088387;28;20195;-68
2021/04/11 00:42:17;;;;;;;3.03;0.10;;;;;;;2.67;58.65;101203.31;5076453;28;20197;-68
2021/04/11 00:44:45;;;;;;;0.37;0.30;;;;;;;2.57;58.92;101207.16;5072932;28;20223;-68
2021/04/11 00:47:12;;;;;;;0.33;0.33;;;;;;;2.52;59.39;101209.06;5079510;28;20207;-68
2021/04/11 00:49:44;;;;;;;0.53;0.53;;;;;;;2.43;59.50;101199.56;5079514;28;20238;-68
2021/04/11 00:52:14;;;;;;;0.77;0.53;;;;;;;2.45;59.54;101203.06;5080539;28;20195;-67
2021/04/11 00:54:43;;;;;;;3.90;0.93;;;;;;;2.04;59.63;101142.34;5080579;28;20249;-67
2021/04/11 00:57:13;;;;;;;0.70;0.50;;;;;;;2.40;60.00;101212.03;5085162;28;20208;-73
2021/04/11 00:59:41;;;;;;;3.47;0.43;;;;;;;2.39;59.83;101210.28;5074409;28;20199;-73
2021/04/11 01:02:08;;;;;;;2.50;0.37;;;;;;;2.38;60.48;101213.84;5078243;28;20261;-74
2021/04/11 01:04:37;;;;;;;0.97;0.33;;;;;;;2.38;60.29;101219.16;5074432;28;20560;-72
2021/04/11 01:07:10;;;;;;;0.77;0.30;;;;;;;2.35;60.21;101221.88;5068867;28;20311;-73
2021/04/11 01:09:50;;;;;;;1.50;0.40;;;;;;;2.23;60.51;101225.72;5083258;28;20318;-68
2021/04/11 01:12:19;;;;;;;0.57;0.23;;;;;;;2.15;60.24;101225.94;5081112;28;20228;-73
2021/04/11 01:14:48;;;;;;;1999.90;999.90;;;;;;;2.09;59.90;101220.78;5077761;28;20212;-73
2021/04/11 01:17:21;;;;;;;330.07;115.13;;;;;;;2.05;60.26;101224.41;5075882;28;20205;-73
2021/04/11 01:19:52;;;;;;;26.00;9.90;;;;;;;2.04;60.15;101220.03;5076930;28;20204;-74
2021/04/11 01:22:37;;;;;;;26.60;8.97;;;;;;;2.05;60.51;101219.09;5076363;28;20238;-68
2021/04/11 01:25:08;;;;;;;9.63;2.60;;;;;;;1.77;60.82;101176.56;5094660;28;20297;-73
2021/04/11 01:27:37;;;;;;;5.53;1.80;;;;;;;2.05;60.67;101229.72;5078934;28;20197;-73
2021/04/11 01:30:13;;;;;;;2.90;1.40;;;;;;;2.05;60.67;101226.19;5074967;28;20225;-73
2021/04/11 01:32:44;;;;;;;4.23;1.70;;;;;;;2.04;61.19;101227.09;5078807;28;20201;-73
2021/04/11 01:35:13;;;;;;;2.17;1.10;;;;;;;2.03;61.22;101230.66;5066504;28;20229;-73
2021/04/11 01:37:42;;;;;;;2.23;0.40;;;;;;;1.94;60.81;101229.13;5073139;28;20207;-73
2021/04/11 01:40:13;;;;;;;3.50;0.53;;;;;;;1.83;61.12;101239.06;5082840;28;20596;-73
2021/04/11 01:42:42;;;;;;;2.00;0.90;;;;;;;1.75;60.94;101241.91;5073592;28;20408;-73
2021/04/11 01:45:12;;;;;;;1.10;0.60;;;;;;;1.65;60.90;101239.53;5082499;28;20625;-73
2021/04/11 01:47:40;;;;;;;5.67;1.13;;;;;;;1.58;61.01;101243.22;5082563;28;20389;-73
2021/04/11 01:50:09;;;;;;;9.07;3.67;;;;;;;1.53;61.30;101238.91;5073942;28;20216;-72
2021/04/11 01:52:38;;;;;;;1.87;1.67;;;;;;;1.59;61.55;101240.53;5083346;28;20227;-73
2021/04/11 01:55:06;;;;;;;1.00;1.00;;;;;;;1.44;61.43;101209.13;5082043;28;20211;-73
2021/04/11 01:57:38;;;;;;;1.07;0.83;;;;;;;1.57;60.98;101244.13;5085859;28;20258;-74
2021/04/11 02:00:19;;;;;;;1.07;0.80;;;;;;;1.51;61.44;101245.09;5076219;28;20251;-73
2021/04/11 02:02:56;;;;;;;3.80;1.10;;;;;;;1.46;61.11;101239.94;5082384;28;20218;-74
2021/04/11 02:05:25;;;;;;;0.80;0.43;;;;;;;1.43;61.33;101252.34;5082242;28;20211;-74
2021/04/11 02:07:56;;;;;;;1.90;0.60;;;;;;;1.36;61.48;101248.97;5082261;28;20678;-74
2021/04/11 02:10:33;;;;;;;2.13;0.43;;;;;;;0.91;61.20;101197.94;5083733;28;20762;-74
2021/04/11 02:13:10;;;;;;;1.30;0.70;;;;;;;1.04;61.40;101214.41;5087383;28;20714;-74
2021/04/11 02:15:42;;;;;;;3.03;0.67;;;;;;;1.17;61.57;101247.63;5115747;27;20198;-74
2021/04/11 02:18:11;;;;;;;1.50;0.53;;;;;;;1.13;61.35;101244.19;5088396;28;20197;-74
2021/04/11 02:20:40;;;;;;;6.50;0.60;;;;;;;1.07;61.42;101240.78;5083341;28;20679;-74
2021/04/11 02:23:09;;;;;;;2.43;0.63;;;;;;;1.10;61.16;101246.00;5086755;28;20237;-74
2021/04/11 02:25:44;;;;;;;0.83;0.50;;;;;;;1.07;61.29;101246.09;5084412;28;20634;-74
2021/04/11 02:28:14;;;;;;;2.43;0.47;;;;;;;0.99;61.48;101242.72;5084070;28;20302;-74
2021/04/11 02:30:44;;;;;;;0.37;0.37;;;;;;;0.98;61.60;101252.44;5081011;28;20222;-74
2021/04/11 02:33:15;;;;;;;0.60;0.33;;;;;;;0.95;61.28;101262.22;5083049;28;20234;-74
2021/04/11 02:35:43;;;;;;;4.10;0.80;;;;;;;0.94;61.88;101261.34;5073268;28;20682;-74
2021/04/11 02:38:13;;;;;;;4.40;0.53;;;;;;;0.58;62.08;101204.75;5077797;28;20190;-74
2021/04/11 02:40:44;;;;;;;3.03;0.50;;;;;;;0.99;62.46;101274.47;5084615;28;20203;-74
2021/04/11 02:43:32;;;;;;;0.63;0.63;;;;;;;0.64;62.84;101223.16;5072957;28;21204;-73
2021/04/11 02:46:01;;;;;;;2.60;0.33;;;;;;;1.02;62.70;101287.63;5082208;28;20690;-75
2021/04/11 02:48:28;;;;;;;1.00;0.37;;;;;;;0.95;62.46;101291.28;5083792;28;20827;-74
2021/04/11 02:51:18;;;;;;;6.33;1.03;;;;;;;0.85;62.19;101294.09;5083839;28;20309;-74
2021/04/11 02:53:53;;;;;;;3.57;0.80;;;;;;;0.74;62.25;101290.78;5087619;28;20320;-73
2021/04/11 02:56:30;;;;;;;0.47;0.30;;;;;;;0.63;62.24;101289.25;5075236;28;20692;-73
2021/04/11 02:58:59;;;;;;;2.23;0.40;;;;;;;0.58;62.51;101302.53;5078533;28;20290;-73
2021/04/11 03:01:30;;;;;;;4.80;0.47;;;;;;;0.59;62.49;101306.91;5082771;28;20253;-73
2021/04/11 03:03:58;;;;;;;1598.10;707.93;;;;;;;0.57;62.48;101308.69;5081636;28;20570;-74
2021/04/11 03:06:28;;;;;;;191.67;75.47;;;;;;;0.57;62.40;101316.63;5076419;28;20204;-74
2021/04/11 03:09:02;;;;;;;9.87;3.50;;;;;;;0.57;62.76;101306.06;5082081;28;20325;-73
2021/04/11 03:11:39;;;;;;;5.10;2.90;;;;;;;0.15;62.55;101239.03;5068119;28;20205;-74
2021/04/11 03:14:13;;;;;;;9.07;3.77;;;;;;;0.57;62.99;101303.41;5078967;28;20252;-74
2021/04/11 03:16:44;;;;;;;3.63;2.30;;;;;;;0.27;62.45;101252.00;5073503;28;20210;-74
2021/04/11 03:19:17;;;;;;;6.87;4.00;;;;;;;0.65;62.54;101312.09;5084655;28;20231;-74
2021/04/11 03:21:45;;;;;;;5.03;2.07;;;;;;;0.68;62.71;101306.75;5073246;28;20209;-73
2021/04/11 03:24:15;;;;;;;3.90;1.80;;;;;;;0.71;62.66;101316.41;5080491;28;20211;-73
2021/04/11 03:26:47;;;;;;;30.27;15.13;;;;;;;0.71;62.48;101316.41;5080860;28;20218;-73
2021/04/11 03:29:28;;;;;;;12.03;4.90;;;;;;;0.72;63.14;101316.38;5075116;28;20568;-74
2021/04/11 03:32:04;;;;;;;16.27;3.53;;;;;;;0.76;62.84;101319.84;5077509;28;20296;-74
2021/04/11 03:34:36;;;;;;;5.20;3.33;;;;;;;0.78;62.76;101315.38;5076221;28;20197;-74
2021/04/11 03:37:06;;;;;;;3.47;1.40;;;;;;;0.75;63.50;101318.97;5074445;28;20219;-73
2021/04/11 03:39:35;;;;;;;1.60;0.70;;;;;;;0.76;62.97;101325.13;5073057;28;20310;-73
2021/04/11 03:42:06;;;;;;;4.57;0.90;;;;;;;0.64;62.84;101320.94;5081750;28;20228;-73
2021/04/11 03:44:36;;;;;;;3.30;0.67;;;;;;;0.53;62.78;101328.16;5071786;28;20201;-74
2021/04/11 03:47:09;;;;;;;2.13;0.60;;;;;;;0.48;63.22;101330.00;5079457;28;20232;-74
2021/04/11 03:49:54;;;;;;;1.50;0.43;;;;;;;0.42;63.26;101340.69;5071464;28;20314;-74
2021/04/11 03:52:29;;;;;;;6.03;1.07;;;;;;;0.38;62.95;101341.63;5071143;28;20197;-73
2021/04/11 03:55:01;;;;;;;4.03;0.77;;;;;;;0.34;63.07;101347.88;5077766;28;20246;-73
2021/04/11 03:57:37;;;;;;;4.07;0.60;;;;;;;0.23;63.10;101340.09;5075335;28;20204;-73
2021/04/11 04:00:12;;;;;;;6.93;3.63;;;;;;;0.20;62.95;101340.16;5080343;28;20207;-73
2021/04/11 04:02:53;;;;;;;5.67;2.13;;;;;;;0.15;63.26;101337.59;5088276;28;20205;-73
2021/04/11 04:05:30;;;;;;;1.23;0.70;;;;;;;0.17;62.90;101334.91;5069090;28;20206;-73
2021/04/11 04:08:03;;;;;;;2.27;0.57;;;;;;;0.19;63.24;101335.75;5107464;27;20241;-73
2021/04/11 04:10:34;;;;;;;1.47;0.57;;;;;;;0.24;63.47;101331.28;5086435;28;20351;-74
2021/04/11 04:13:24;;;;;;;0.27;0.27;;;;;;;0.00;63.25;101287.69;5068328;28;20288;-74
2021/04/11 04:16:09;;;;;;;3.60;0.80;;;;;;;-0.11;63.56;101260.56;5073152;28;20293;-67
2021/04/11 04:19:14;;;;;;;4.63;1.00;;;;;;;0.45;63.84;101340.63;5074905;28;20198;-74
2021/04/11 04:21:56;;;;;;;1.07;0.50;;;;;;;0.52;63.26;101342.25;5084312;28;20606;-74
2021/04/11 04:24:35;;;;;;;2.37;0.87;;;;;;;0.40;63.15;101309.00;5082457;28;20265;-74
2021/04/11 04:27:22;;;;;;;0.80;0.27;;;;;;;0.69;63.13;101355.19;5081192;28;20274;-73
2021/04/11 04:30:02;;;;;;;2.73;0.70;;;;;;;0.75;62.98;101355.97;5074223;28;20230;-73
2021/04/11 04:32:47;;;;;;;2.83;0.43;;;;;;;0.81;63.22;101355.84;5075746;28;20198;-73
2021/04/11 04:35:24;;;;;;;2.93;0.60;;;;;;;0.58;63.16;101321.00;5078367;28;20706;-74
2021/04/11 04:38:10;;;;;;;3.10;0.77;;;;;;;0.98;63.22;101368.78;5077745;28;20201;-73
2021/04/11 04:40:46;;;;;;;2.23;0.43;;;;;;;1.11;62.98;101375.56;5078023;28;20198;-73
2021/04/11 04:43:21;;;;;;;1.40;0.60;;;;;;;1.15;63.80;101376.38;5084637;28;20205;-67
2021/04/11 04:46:04;;;;;;;4.53;0.40;;;;;;;1.17;63.62;101382.50;5085710;28;20199;-67
2021/04/11 04:48:37;;;;;;;7.50;0.53;;;;;;;1.18;63.80;101385.13;5085228;28;20237;-67
2021/04/11 04:51:16;;;;;;;1.87;0.40;;;;;;;1.16;63.71;101391.34;5080996;28;20591;-67
2021/04/11 04:53:59;;;;;;;2.23;0.90;;;;;;;1.25;63.70;101388.53;5076168;28;20217;-68
2021/04/11 04:56:38;;;;;;;1.53;0.60;;;;;;;1.40;63.16;101390.00;5084291;28;20206;-66
2021/04/11 04:59:14;;;;;;;1.03;0.50;;;;;;;1.58;62.69;101402.00;5081322;28;20662;-67
2021/04/11 05:01:50;;;;;;;4.50;0.63;;;;;;;1.72;63.21;101392.00;5071574;28;20654;-67
2021/04/11 05:04:25;;;;;;;0.50;0.50;;;;;;;1.89;62.73;101394.31;5082088;28;20576;-67
2021/04/11 05:07:02;;;;;;;1.80;0.70;;;;;;;1.65;62.99;101318.94;5085407;28;20210;-67
2021/04/11 05:09:41;;;;;;;3.90;0.80;;;;;;;2.20;63.06;101394.50;5076088;28;20314;-67
2021/04/11 05:12:40;;;;;;;0.83;0.50;;;;;;;2.33;63.40;101398.59;5075171;28;20543;-67
2021/04/11 05:15:13;;;;;;;4.23;0.40;;;;;;;2.45;63.54;101400.97;5081359;28;20202;-66
2021/04/11 05:17:45;;;;;;;4.00;0.70;;;;;;;2.58;63.67;101406.84;5074771;28;20230;-66
2021/04/11 05:20:20;;;;;;;0.87;0.70;;;;;;;2.65;63.56;101397.81;5084652;28;20546;-67
2021/04/11 05:22:59;;;;;;;0.67;0.53;;;;;;;2.66;63.59;101392.47;5085159;28;20570;-67
2021/04/11 05:25:40;;;;;;;1.70;0.50;;;;;;;2.72;63.26;101387.03;5081683;28;20203;-73
2021/04/11 05:28:14;;;;;;;3.73;0.40;;;;;;;2.88;63.26;101402.56;5088281;28;20215;-73
2021/04/11 05:30:49;;;;;;;1.67;0.60;;;;;;;3.05;62.57;101409.16;5083776;28;20231;-66
2021/04/11 05:33:20;;;;;;;1.17;0.80;;;;;;;3.27;62.27;101416.56;5074244;28;20205;-72
2021/04/11 05:35:56;;;;;;;1.40;0.37;;;;;;;3.45;61.72;101407.25;5084228;28;20197;-67
2021/04/11 05:38:29;;;;;;;1.80;0.80;;;;;;;3.47;63.42;101418.69;5080302;28;20211;-67
2021/04/11 05:41:03;;;;;;;157.37;81.50;;;;;;;3.37;63.49;101421.59;5082771;28;20566;-67
2021/04/11 05:43:37;;;;;;;5.00;2.33;;;;;;;3.31;63.50;101424.38;5084973;28;20248;-68
2021/04/11 05:46:11;;;;;;;4.53;0.70;;;;;;;3.38;63.46;101415.38;5085982;28;20246;-68
2021/04/11 05:48:47;;;;;;;4.27;1.33;;;;;;;3.42;63.17;101416.16;5088296;28;20215;-68
2021/04/11 05:51:19;;;;;;;1.30;0.90;;;;;;;3.50;63.72;101418.59;5083267;28;21215;-67
2021/04/11 05:53:52;;;;;;;0.97;0.53;;;;;;;3.47;64.00;101421.34;5086069;28;20196;-67
2021/04/11 05:56:21;;;;;;;1.20;0.73;;;;;;;3.65;63.90;101418.16;5080605;28;20203;-67
2021/04/11 05:58:53;;;;;;;3.30;0.50;;;;;;;3.80;63.61;101425.69;5083554;28;20702;-67
2021/04/11 06:01:24;;;;;;;23.17;15.87;;;;;;;3.95;64.08;101442.97;5086634;28;20313;-68
2021/04/11 06:03:58;;;;;;;1.40;0.80;;;;;;;3.99;64.23;101434.88;5090571;28;20683;-68
2021/04/11 06:06:30;;;;;;;3.87;0.80;;;;;;;4.09;64.41;101434.59;5080529;28;20730;-68
2021/04/11 06:09:05;;;;;;;2.97;0.87;;;;;;;4.11;64.83;101427.44;5082437;28;20255;-68
2021/04/11 06:11:39;;;;;;;2.77;0.90;;;;;;;4.18;66.40;101440.50;5082575;28;20350;-68
2021/04/11 06:14:13;;;;;;;2.50;0.70;;;;;;;4.30;67.15;101444.59;5081805;28;20288;-68
2021/04/11 06:16:40;;;;;;;0.83;0.30;;;;;;;4.25;67.50;101428.75;5074617;28;20249;-74
2021/04/11 06:19:09;;;;;;;9.53;1.10;;;;;;;4.23;67.18;101412.00;5080939;28;20691;-74
2021/04/11 06:21:57;;;;;;;8.43;0.97;;;;;;;4.39;66.97;101415.06;5076508;28;20299;-74
2021/04/11 06:24:39;;;;;;;2.20;0.57;;;;;;;4.73;66.87;101444.09;5078133;28;20200;-74
2021/04/11 06:27:17;;;;;;;1.83;0.93;;;;;;;4.89;66.41;101440.00;5076814;28;20205;-74
2021/04/11 06:29:54;;;;;;;1.67;0.80;;;;;;;5.01;65.51;101437.88;5072937;28;20672;-74
2021/04/11 06:32:23;;;;;;;4.10;1.30;;;;;;;5.26;66.00;101452.97;5075490;28;20199;-74
2021/04/11 06:34:57;;;;;;;1.87;1.00;;;;;;;5.33;64.75;101434.09;5078727;28;20197;-74
2021/04/11 06:37:28;;;;;;;5.60;0.80;;;;;;;5.54;65.62;101430.69;5078985;28;20228;-74
2021/04/11 06:39:57;;;;;;;4.50;1.20;;;;;;;5.58;62.95;101432.31;5084506;28;20200;-67
2021/04/11 06:42:56;;;;;;;6.13;1.40;;;;;;;5.69;62.55;101432.78;5077631;28;20696;-68
2021/04/11 06:45:37;;;;;;;3.80;1.57;;;;;;;5.98;62.17;101428.22;5075838;28;20590;-68
2021/04/11 06:48:26;;;;;;;6.47;1.77;;;;;;;6.08;61.19;101429.59;5074281;28;20283;-68
2021/04/11 06:51:41;;;;;;;5.20;1.40;;;;;;;6.13;61.69;101427.66;5081606;28;20220;-69
2021/04/11 06:54:40;;;;;;;6.70;1.47;;;;;;;6.09;61.54;101418.00;5074907;28;20205;-67
2021/04/11 06:57:27;;;;;;;8.53;1.40;;;;;;;6.41;61.06;101427.41;5076599;28;20687;-68
2021/04/11 07:00:08;;;;;;;8.10;2.97;;;;;;;6.66;60.75;101437.97;5075646;28;20303;-74
2021/04/11 07:03:25;;;;;;;10.37;2.60;;;;;;;7.02;59.15;101433.78;5075667;28;20272;-74
2021/04/11 07:06:25;;;;;;;9.03;3.00;;;;;;;7.12;59.98;101435.16;5080237;28;20209;-74
2021/04/11 07:09:09;;;;;;;11.17;2.23;;;;;;;7.28;58.60;101438.03;5080069;28;20652;-74
2021/04/11 07:12:18;;;;;;;3.03;1.40;;;;;;;7.53;57.58;101437.84;5082047;28;20308;-74
2021/04/11 07:15:28;;;;;;;9.60;1.40;;;;;;;7.74;56.53;101441.38;5077872;28;20676;-73
2021/04/11 07:18:28;;;;;;;2.57;1.07;;;;;;;7.98;57.63;101450.97;5076496;28;20230;-77
2021/04/11 07:21:37;;;;;;;6.63;1.60;;;;;;;8.10;56.57;101445.06;5073827;28;20227;-68
2021/04/11 07:24:26;;;;;;;4.40;0.97;;;;;;;8.65;56.88;101452.31;5048356;28;20215;-68
2021/04/11 07:27:04;;;;;;;4.07;1.63;;;;;;;8.70;55.51;101428.84;5072902;28;20186;-68
2021/04/11 07:29:45;;;;;;;2.07;1.23;;;;;;;9.02;55.26;101421.91;5075595;28;20198;-73
2021/04/11 07:32:29;;;;;;;7.37;1.07;;;;;;;9.12;52.90;101449.09;5073887;28;20226;-73
2021/04/11 07:35:05;;;;;;;4.43;1.20;;;;;;;8.76;54.44;101407.13;5077901;28;20209;-73
2021/04/11 07:37:46;;;;;;;4.77;1.23;;;;;;;9.60;53.84;101457.31;5068426;28;20191;-73
2021/04/11 07:40:22;;;;;;;5.87;1.17;;;;;;;9.80;53.69;101452.72;5075187;28;20224;-73
2021/04/11 07:43:05;;;;;;;5.87;1.50;;;;;;;9.93;52.65;101453.78;5070775;28;20201;-73
2021/04/11 07:46:03;;;;;;;4.73;1.13;;;;;;;9.60;51.72;101449.25;5079095;28;20210;-73
2021/04/11 07:48:52;;;;;;;7.27;1.03;;;;;;;9.59;51.75;101452.91;5082470;28;20217;-73
2021/04/11 07:51:47;;;;;;;2.23;0.63;;;;;;;9.31;50.30;101437.38;5074913;28;20260;-73
2021/04/11 07:54:38;;;;;;;2.20;1.00;;;;;;;9.12;51.15;101458.00;5072095;28;20196;-73
2021/04/11 07:57:28;;;;;;;9.23;1.53;;;;;;;9.39;50.70;101466.44;5076040;28;20562;-73
2021/04/11 08:00:10;;;;;;;5.23;1.50;;;;;;;9.14;51.61;101460.59;5075902;28;20537;-74
2021/04/11 08:03:18;;;;;;;6.80;1.77;;;;;;;9.41;52.59;101464.56;5067545;28;20203;-74
2021/04/11 08:06:05;;;;;;;6.90;1.90;;;;;;;9.37;52.86;101468.34;5091614;28;20652;-74
2021/04/11 08:08:48;;;;;;;8.90;2.13;;;;;;;9.23;52.47;101476.22;5077260;28;20229;-74
2021/04/11 08:11:49;;;;;;;4.67;1.47;;;;;;;9.34;52.47;101481.91;5073584;28;20228;-73
2021/04/11 08:14:30;;;;;;;2.17;1.07;;;;;;;9.20;52.61;101484.44;5066955;28;20229;-73
2021/04/11 08:17:09;;;;;;;2.97;0.97;;;;;;;8.97;52.53;101482.88;5087467;28;20665;-75
2021/04/11 08:19:58;;;;;;;7.87;1.13;;;;;;;8.56;52.77;101476.81;5083790;28;20208;-74
2021/04/11 08:22:48;;;;;;;2.00;0.67;;;;;;;8.48;53.48;101482.56;5081544;28;20209;-67
2021/04/11 08:25:25;;;;;;;0.70;0.60;;;;;;;8.31;54.06;101474.44;5081317;28;20203;-68
2021/04/11 08:28:30;;;;;;;5.67;1.03;;;;;;;8.08;53.64;101480.84;5085186;28;20681;-68
2021/04/11 08:31:14;;;;;;;6.23;1.10;;;;;;;8.11;54.56;101478.00;5074956;28;20222;-68
2021/04/11 08:33:57;;;;;;;1.00;0.70;;;;;;;8.02;55.04;101462.41;5072178;28;20191;-69
2021/04/11 08:36:43;;;;;;;1.00;0.67;;;;;;;7.97;54.98;101470.63;5077213;28;20279;-69
2021/04/11 08:39:30;;;;;;;6.07;0.83;;;;;;;7.56;55.44;101421.66;5069210;28;20216;-69
2021/04/11 08:42:18;;;;;;;4.03;0.70;;;;;;;7.87;56.40;101461.28;5079528;28;20610;-68
2021/04/11 08:44:57;;;;;;;2.47;0.60;;;;;;;7.77;55.21;101460.81;5069911;28;20339;-67
2021/04/11 08:47:34;;;;;;;2.67;1.13;;;;;;;8.22;54.28;101459.66;5077343;28;20223;-68
2021/04/11 08:50:09;;;;;;;1.83;0.87;;;;;;;8.35;53.31;101460.00;5073483;28;20256;-68
2021/04/11 08:52:44;;;;;;;0.60;0.60;;;;;;;8.01;53.91;101449.97;5071774;28;20422;-67
2021/04/11 08:55:25;;;;;;;3.40;0.87;;;;;;;7.95;53.98;101458.25;5072791;28;20200;-67
2021/04/11 08:58:19;;;;;;;3.03;0.60;;;;;;;7.93;53.63;101452.97;5074012;28;20206;-68
2021/04/11 09:00:50;;;;;;;0.47;0.43;;;;;;;8.15;54.44;101460.88;5072676;28;20587;-68
2021/04/11 09:03:38;;;;;;;1.93;1.00;;;;;;;8.07;53.83;101460.38;5075037;28;20196;-67
2021/04/11 09:06:13;;;;;;;6.63;0.97;;;;;;;7.67;53.83;101376.63;5079275;28;20597;-67
2021/04/11 09:08:59;;;;;;;5.20;0.87;;;;;;;8.26;53.51;101468.41;5089722;28;20235;-74
2021/04/11 09:11:32;;;;;;;1.83;0.70;;;;;;;8.34;53.29;101456.44;5079106;28;20695;-75
2021/04/11 09:14:15;;;;;;;7.93;0.90;;;;;;;8.27;52.63;101454.97;5080001;28;22563;-73
2021/04/11 09:16:52;;;;;;;4.20;0.70;;;;;;;8.42;52.74;101450.72;5071080;28;20302;-74
2021/04/11 09:19:25;;;;;;;0.87;0.33;;;;;;;8.32;52.21;101455.63;5086368;28;20207;-74
2021/04/11 09:22:36;;;;;;;2.60;0.47;;;;;;;8.29;52.89;101450.41;5082598;28;20193;-75
2021/04/11 09:25:12;;;;;;;5.57;0.60;;;;;;;8.32;52.68;101455.63;5033689;28;20611;-74
2021/04/11 09:28:01;;;;;;;2.77;0.63;;;;;;;8.26;52.63;101455.03;5071201;28;20740;-74
2021/04/11 09:30:47;;;;;;;2.20;0.53;;;;;;;8.45;52.40;101442.56;5080007;28;20211;-72
2021/04/11 09:33:41;;;;;;;2.30;0.60;;;;;;;8.51;52.22;101458.31;5081217;28;20285;-71
2021/04/11 09:36:21;;;;;;;8.47;1.37;;;;;;;8.42;52.05;101456.09;5054463;28;20301;-71
2021/04/11 09:39:06;;;;;;;3.13;0.40;;;;;;;8.49;52.13;101452.16;5090165;28;20620;-73
2021/04/11 09:41:56;;;;;;;3.20;0.53;;;;;;;8.06;52.72;101453.28;5079192;28;20286;-73
2021/04/11 09:44:41;;;;;;;0.97;0.53;;;;;;;8.01;52.85;101447.28;5076916;28;20621;-71
2021/04/11 09:47:31;;;;;;;1.23;0.47;;;;;;;8.18;53.17;101452.72;5081229;28;20227;-71
2021/04/11 09:50:12;;;;;;;3.10;0.60;;;;;;;8.12;52.38;101453.00;5073524;28;20722;-68
2021/04/11 09:52:59;;;;;;;1.20;0.27;;;;;;;8.14;52.72;101437.75;5071402;28;20198;-68
2021/04/11 09:55:30;;;;;;;5.23;0.73;;;;;;;8.13;52.14;101449.38;5076247;28;20251;-68
2021/04/11 09:58:17;;;;;;;7.57;0.60;;;;;;;8.15;52.20;101458.22;5081487;28;20614;-67
2021/04/11 10:00:53;;;;;;;3.50;0.60;;;;;;;8.17;51.93;101455.47;5087681;28;20200;-66
2021/04/11 10:03:31;;;;;;;1.50;0.47;;;;;;;8.17;51.73;101452.78;5081824;28;20721;-67
2021/04/11 10:06:15;;;;;;;4.63;0.67;;;;;;;8.17;52.46;101450.97;5073288;28;20194;-68
2021/04/11 10:09:09;;;;;;;7.40;0.97;;;;;;;8.10;50.63;101449.53;5081647;28;20252;-71
2021/04/11 10:11:55;;;;;;;1.07;0.60;;;;;;;8.23;52.55;101444.47;5074612;28;20223;-67
2021/04/11 10:14:40;;;;;;;2.47;0.70;;;;;;;8.28;52.55;101443.34;5078280;28;20295;-68
2021/04/11 10:17:22;;;;;;;0.73;0.67;;;;;;;8.22;51.76;101435.56;5096972;28;20233;-69
2021/04/11 10:20:00;;;;;;;2.00;0.70;;;;;;;8.28;51.15;101437.13;5082900;28;20200;-70
2021/04/11 10:22:39;;;;;;;3.93;0.80;;;;;;;8.34;51.85;101426.16;5088976;28;20735;-67
2021/04/11 10:25:14;;;;;;;0.80;0.47;;;;;;;8.35;51.53;101434.09;5085668;28;20241;-68
2021/04/11 10:27:54;;;;;;;3.07;0.80;;;;;;;8.41;51.03;101432.94;5085761;28;20208;-67
2021/04/11 10:30:22;;;;;;;2.83;0.70;;;;;;;8.43;50.38;101435.53;5082790;28;20736;-67
2021/04/11 10:32:57;;;;;;;3.67;0.47;;;;;;;8.36;50.68;101413.56;5078731;28;20277;-67
2021/04/11 10:35:27;;;;;;;1.23;0.40;;;;;;;8.51;50.11;101428.00;5086826;28;20191;-71
2021/04/11 10:37:58;;;;;;;2.33;0.60;;;;;;;8.39;50.21;101429.47;5080714;28;20202;-70
2021/04/11 10:41:04;;;;;;;1.53;0.40;;;;;;;8.39;50.15;101416.97;5080615;28;20332;-72
2021/04/11 10:43:43;;;;;;;1.43;0.60;;;;;;;8.46;51.13;101413.97;5041585;28;20233;-71
2021/04/11 10:46:12;;;;;;;1.10;0.53;;;;;;;8.41;50.48;101411.53;5079518;28;20194;-68
2021/04/11 10:48:58;;;;;;;5.07;0.50;;;;;;;8.37;50.84;101409.94;5076366;28;20409;-68
2021/04/11 10:51:54;;;;;;;0.37;0.33;;;;;;;8.34;51.28;101388.69;5087290;28;20297;-68
2021/04/11 10:54:37;;;;;;;6.27;0.60;;;;;;;8.39;51.02;101408.94;5076669;28;20661;-68
2021/04/11 10:57:29;;;;;;;3.53;0.90;;;;;;;8.45;50.52;101405.09;5081558;28;20213;-69
2021/04/11 11:00:08;;;;;;;3.47;0.70;;;;;;;8.58;50.88;101418.75;5074270;28;20228;-69
2021/04/11 11:03:09;;;;;;;3.73;1.00;;;;;;;8.38;50.80;101407.19;5077706;28;20195;-68
2021/04/11 11:05:59;;;;;;;2.37;0.60;;;;;;;8.29;50.42;101404.94;5076217;28;20222;-68
2021/04/11 11:09:03;;;;;;;0.70;0.70;;;;;;;8.43;51.33;101416.81;5081237;28;20712;-68
2021/04/11 11:11:46;;;;;;;5.50;1.00;;;;;;;8.25;50.69;101418.50;5078601;28;20214;-69
2021/04/11 11:14:29;;;;;;;2.80;0.53;;;;;;;8.19;50.44;101411.63;5081116;28;20230;-69
2021/04/11 11:17:24;;;;;;;1.77;0.60;;;;;;;8.04;50.24;101417.72;5071092;28;20619;-69
2021/04/11 11:20:23;;;;;;;0.93;0.50;;;;;;;8.09;50.80;101405.00;5072898;28;20537;-75
2021/04/11 11:23:22;;;;;;;1.10;0.63;;;;;;;8.17;50.19;101402.81;5083676;28;20205;-74
2021/04/11 11:26:00;;;;;;;0.90;0.47;;;;;;;8.18;50.04;101420.59;5080337;28;20201;-70
2021/04/11 11:29:22;;;;;;;3.20;0.60;;;;;;;8.04;50.30;101410.56;5077325;28;20690;-68
2021/04/11 11:31:59;;;;;;;7.10;0.57;;;;;;;8.11;51.04;101411.13;5087066;28;20234;-72
2021/04/11 11:34:38;;;;;;;6.53;0.97;;;;;;;8.09;50.76;101411.22;5076998;28;20210;-73
2021/04/11 11:37:16;;;;;;;2.63;0.43;;;;;;;8.03;51.19;101416.00;5087277;28;20198;-67
2021/04/11 11:39:47;;;;;;;3.20;0.43;;;;;;;7.84;51.51;101407.06;5073131;28;20203;-67
2021/04/11 11:42:39;;;;;;;2.47;0.60;;;;;;;7.79;51.38;101402.78;5081763;28;20302;-66
2021/04/11 11:45:15;;;;;;;0.70;0.40;;;;;;;7.74;51.75;101417.31;5078968;28;20206;-67
2021/04/11 11:48:13;;;;;;;5.77;0.70;;;;;;;7.71;51.93;101401.41;5082670;28;20194;-68
2021/04/11 11:50:49;;;;;;;1.60;0.70;;;;;;;7.72;51.99;101409.38;5074960;28;20681;-69
2021/04/11 11:53:23;;;;;;;1.70;0.50;;;;;;;7.73;52.30;101408.44;5072642;28;20689;-68
2021/04/11 11:56:03;;;;;;;2.23;0.60;;;;;;;7.76;52.40;101402.94;5073817;28;20368;-67
2021/04/11 11:58:41;;;;;;;0.83;0.70;;;;;;;7.70;52.20;101400.56;5074817;28;20201;-72
2021/04/11 12:01:20;;;;;;;4.93;1.00;;;;;;;7.58;52.13;101403.75;5080709;28;20212;-73
2021/04/11 12:03:47;;;;;;;3.30;0.50;;;;;;;7.70;52.99;101397.88;5077133;28;20266;-67
2021/04/11 12:06:23;;;;;;;0.90;0.63;;;;;;;7.67;52.62;101386.47;5083296;28;20730;-68
2021/04/11 12:08:56;;;;;;;4.77;0.50;;;;;;;7.56;52.99;101378.91;5070799;28;20233;-69
2021/04/11 12:11:37;;;;;;;1.07;0.70;;;;;;;7.64;53.45;101382.09;5073019;28;20785;-67
2021/04/11 12:14:10;;;;;;;1.90;1.07;;;;;;;7.59;53.07;101378.75;5072656;28;20200;-68
2021/04/11 12:16:41;;;;;;;0.93;0.50;;;;;;;7.36;52.76;101350.44;5072620;28;20195;-67
2021/04/11 12:19:16;;;;;;;1.00;0.77;;;;;;;7.35;53.54;101382.56;5071528;28;20197;-68
2021/04/11 12:21:51;;;;;;;2.73;0.70;;;;;;;7.45;53.30;101375.84;5074073;28;20191;-72
2021/04/11 12:24:22;;;;;;;3.27;0.60;;;;;;;7.51;52.55;101375.56;5083253;28;20195;-72